sensor_id;sensor_type;location;lat;lon;timestamp;P1;durP1;ratioP1;P2;durP2;ratioP2
64227;SDS011;50546;49.146;10.616;2022-10-16T00:00:32;9.05;;;3.88;;
64227;SDS011;50546;49.146;10.616;2022-10-16T00:02:59;9.50;;;3.67;;
64227;SDS011;50546;49.146;10.616;2022-10-16T00:05:24;11.30;;;3.92;;
64227;SDS011;50546;49.146;10.616;2022-10-16T00:07:50;10.80;;;4.38;;
64227;SDS011;50546;49.146;10.616;2022-10-16T00:10:15;8.23;;;3.60;;
64227;SDS011;50546;49.146;10.616;2022-10-16T00:12:41;6.25;;;2.90;;
64227;SDS011;50546;49.146;10.616;2022-10-16T00:15:06;7.78;;;3.28;;
64227;SDS011;50546;49.146;10.616;2022-10-16T00:17:32;6.70;;;2.83;;
64227;SDS011;50546;49.146;10.616;2022-10-16T00:19:57;9.15;;;3.60;;
64227;SDS011;50546;49.146;10.616;2022-10-16T00:22:22;7.60;;;4.10;;
64227;SDS011;50546;49.146;10.616;2022-10-16T00:24:48;6.90;;;4.13;;
64227;SDS011;50546;49.146;10.616;2022-10-16T00:27:13;7.38;;;3.70;;
64227;SDS011;50546;49.146;10.616;2022-10-16T00:29:38;9.18;;;4.40;;
64227;SDS011;50546;49.146;10.616;2022-10-16T00:32:04;7.32;;;3.78;;
64227;SDS011;50546;49.146;10.616;2022-10-16T00:34:29;7.70;;;3.83;;
64227;SDS011;50546;49.146;10.616;2022-10-16T00:36:55;7.70;;;3.90;;
64227;SDS011;50546;49.146;10.616;2022-10-16T00:39:20;7.00;;;3.90;;
64227;SDS011;50546;49.146;10.616;2022-10-16T00:41:46;7.07;;;3.58;;
64227;SDS011;50546;49.146;10.616;2022-10-16T00:47:21;7.32;;;3.33;;
64227;SDS011;50546;49.146;10.616;2022-10-16T00:49:51;7.82;;;3.40;;
64227;SDS011;50546;49.146;10.616;2022-10-16T00:52:21;6.90;;;3.35;;
64227;SDS011;50546;49.146;10.616;2022-10-16T00:54:46;8.23;;;2.97;;
64227;SDS011;50546;49.146;10.616;2022-10-16T00:57:14;6.93;;;3.42;;
64227;SDS011;50546;49.146;10.616;2022-10-16T00:59:40;7.38;;;3.58;;
64227;SDS011;50546;49.146;10.616;2022-10-16T01:02:07;7.07;;;3.58;;
64227;SDS011;50546;49.146;10.616;2022-10-16T01:12:40;7.22;;;3.65;;
64227;SDS011;50546;49.146;10.616;2022-10-16T01:15:11;6.85;;;3.17;;
64227;SDS011;50546;49.146;10.616;2022-10-16T01:17:48;6.63;;;3.10;;
64227;SDS011;50546;49.146;10.616;2022-10-16T01:20:25;6.50;;;3.13;;
64227;SDS011;50546;49.146;10.616;2022-10-16T01:23:12;6.90;;;3.10;;
64227;SDS011;50546;49.146;10.616;2022-10-16T01:28:34;7.25;;;2.95;;
64227;SDS011;50546;49.146;10.616;2022-10-16T01:31:04;6.40;;;3.20;;
64227;SDS011;50546;49.146;10.616;2022-10-16T01:33:34;9.77;;;3.63;;
64227;SDS011;50546;49.146;10.616;2022-10-16T01:36:07;7.88;;;3.25;;
64227;SDS011;50546;49.146;10.616;2022-10-16T01:38:38;6.88;;;3.03;;
64227;SDS011;50546;49.146;10.616;2022-10-16T01:41:08;7.53;;;3.28;;
64227;SDS011;50546;49.146;10.616;2022-10-16T01:43:39;9.65;;;3.33;;
64227;SDS011;50546;49.146;10.616;2022-10-16T01:46:11;7.30;;;3.00;;
64227;SDS011;50546;49.146;10.616;2022-10-16T01:48:40;7.18;;;2.83;;
64227;SDS011;50546;49.146;10.616;2022-10-16T01:51:07;6.80;;;3.50;;
64227;SDS011;50546;49.146;10.616;2022-10-16T01:53:37;7.07;;;3.13;;
64227;SDS011;50546;49.146;10.616;2022-10-16T01:56:04;7.10;;;3.20;;
64227;SDS011;50546;49.146;10.616;2022-10-16T01:58:34;10.18;;;3.25;;
64227;SDS011;50546;49.146;10.616;2022-10-16T02:01:04;7.97;;;3.20;;
64227;SDS011;50546;49.146;10.616;2022-10-16T02:03:35;6.95;;;3.22;;
64227;SDS011;50546;49.146;10.616;2022-10-16T02:06:06;9.57;;;3.30;;
64227;SDS011;50546;49.146;10.616;2022-10-16T02:08:31;9.88;;;3.30;;
64227;SDS011;50546;49.146;10.616;2022-10-16T02:10:57;8.27;;;4.00;;
64227;SDS011;50546;49.146;10.616;2022-10-16T02:13:35;7.78;;;3.20;;
64227;SDS011;50546;49.146;10.616;2022-10-16T02:16:05;7.63;;;3.55;;
64227;SDS011;50546;49.146;10.616;2022-10-16T02:18:31;8.38;;;3.50;;
64227;SDS011;50546;49.146;10.616;2022-10-16T02:21:02;8.93;;;3.28;;
64227;SDS011;50546;49.146;10.616;2022-10-16T02:26:11;8.35;;;3.50;;
64227;SDS011;50546;49.146;10.616;2022-10-16T02:28:42;9.32;;;3.92;;
64227;SDS011;50546;49.146;10.616;2022-10-16T02:31:12;9.18;;;3.70;;
64227;SDS011;50546;49.146;10.616;2022-10-16T02:33:43;8.75;;;3.75;;
64227;SDS011;50546;49.146;10.616;2022-10-16T02:36:11;7.93;;;4.05;;
64227;SDS011;50546;49.146;10.616;2022-10-16T02:38:37;9.93;;;3.80;;
64227;SDS011;50546;49.146;10.616;2022-10-16T02:41:04;9.40;;;3.90;;
64227;SDS011;50546;49.146;10.616;2022-10-16T02:43:30;9.82;;;3.85;;
64227;SDS011;50546;49.146;10.616;2022-10-16T02:45:55;8.10;;;3.45;;
64227;SDS011;50546;49.146;10.616;2022-10-16T02:48:21;8.18;;;3.45;;
64227;SDS011;50546;49.146;10.616;2022-10-16T02:50:46;6.75;;;3.38;;
64227;SDS011;50546;49.146;10.616;2022-10-16T02:53:11;8.15;;;3.28;;
64227;SDS011;50546;49.146;10.616;2022-10-16T02:55:37;7.97;;;3.85;;
64227;SDS011;50546;49.146;10.616;2022-10-16T02:58:02;7.80;;;3.65;;
64227;SDS011;50546;49.146;10.616;2022-10-16T03:00:27;7.90;;;3.78;;
64227;SDS011;50546;49.146;10.616;2022-10-16T03:02:53;8.65;;;3.47;;
64227;SDS011;50546;49.146;10.616;2022-10-16T03:05:19;9.95;;;3.97;;
64227;SDS011;50546;49.146;10.616;2022-10-16T03:07:44;9.00;;;4.32;;
64227;SDS011;50546;49.146;10.616;2022-10-16T03:10:09;6.60;;;3.22;;
64227;SDS011;50546;49.146;10.616;2022-10-16T03:12:35;7.78;;;3.20;;
64227;SDS011;50546;49.146;10.616;2022-10-16T03:15:01;6.40;;;3.28;;
64227;SDS011;50546;49.146;10.616;2022-10-16T03:17:26;9.82;;;3.53;;
64227;SDS011;50546;49.146;10.616;2022-10-16T03:19:51;6.00;;;3.10;;
64227;SDS011;50546;49.146;10.616;2022-10-16T03:22:17;8.20;;;3.28;;
64227;SDS011;50546;49.146;10.616;2022-10-16T03:24:42;7.82;;;2.90;;
64227;SDS011;50546;49.146;10.616;2022-10-16T03:27:08;9.02;;;3.85;;
64227;SDS011;50546;49.146;10.616;2022-10-16T03:29:33;9.75;;;3.85;;
64227;SDS011;50546;49.146;10.616;2022-10-16T03:31:59;7.20;;;2.83;;
64227;SDS011;50546;49.146;10.616;2022-10-16T03:34:25;7.95;;;3.13;;
64227;SDS011;50546;49.146;10.616;2022-10-16T03:36:50;6.75;;;3.33;;
64227;SDS011;50546;49.146;10.616;2022-10-16T03:39:16;6.82;;;3.10;;
64227;SDS011;50546;49.146;10.616;2022-10-16T03:41:41;8.55;;;4.03;;
64227;SDS011;50546;49.146;10.616;2022-10-16T03:44:06;8.27;;;3.58;;
64227;SDS011;50546;49.146;10.616;2022-10-16T03:46:32;7.10;;;3.45;;
64227;SDS011;50546;49.146;10.616;2022-10-16T03:48:57;8.80;;;3.67;;
64227;SDS011;50546;49.146;10.616;2022-10-16T03:51:23;6.82;;;3.40;;
64227;SDS011;50546;49.146;10.616;2022-10-16T03:53:48;9.95;;;4.07;;
64227;SDS011;50546;49.146;10.616;2022-10-16T03:56:13;7.68;;;3.60;;
64227;SDS011;50546;49.146;10.616;2022-10-16T03:58:39;7.53;;;3.60;;
64227;SDS011;50546;49.146;10.616;2022-10-16T04:01:04;8.25;;;3.70;;
64227;SDS011;50546;49.146;10.616;2022-10-16T04:03:29;7.97;;;3.83;;
64227;SDS011;50546;49.146;10.616;2022-10-16T04:05:55;8.50;;;4.00;;
64227;SDS011;50546;49.146;10.616;2022-10-16T04:08:20;8.32;;;3.80;;
64227;SDS011;50546;49.146;10.616;2022-10-16T04:10:46;7.15;;;3.95;;
64227;SDS011;50546;49.146;10.616;2022-10-16T04:13:11;7.93;;;4.35;;
64227;SDS011;50546;49.146;10.616;2022-10-16T04:15:37;7.68;;;4.30;;
64227;SDS011;50546;49.146;10.616;2022-10-16T04:18:03;8.18;;;4.70;;
64227;SDS011;50546;49.146;10.616;2022-10-16T04:20:30;8.98;;;4.90;;
64227;SDS011;50546;49.146;10.616;2022-10-16T04:22:55;10.13;;;4.15;;
64227;SDS011;50546;49.146;10.616;2022-10-16T04:25:21;7.50;;;4.10;;
64227;SDS011;50546;49.146;10.616;2022-10-16T04:27:46;7.30;;;3.75;;
64227;SDS011;50546;49.146;10.616;2022-10-16T04:30:12;9.07;;;3.70;;
64227;SDS011;50546;49.146;10.616;2022-10-16T04:32:37;6.25;;;3.53;;
64227;SDS011;50546;49.146;10.616;2022-10-16T04:35:03;8.65;;;4.70;;
64227;SDS011;50546;49.146;10.616;2022-10-16T04:37:28;6.80;;;3.78;;
64227;SDS011;50546;49.146;10.616;2022-10-16T04:39:54;6.78;;;3.35;;
64227;SDS011;50546;49.146;10.616;2022-10-16T04:42:19;7.78;;;3.92;;
64227;SDS011;50546;49.146;10.616;2022-10-16T04:44:45;8.93;;;3.38;;
64227;SDS011;50546;49.146;10.616;2022-10-16T04:47:11;7.50;;;3.50;;
64227;SDS011;50546;49.146;10.616;2022-10-16T04:49:36;9.23;;;3.50;;
64227;SDS011;50546;49.146;10.616;2022-10-16T04:52:02;6.90;;;3.58;;
64227;SDS011;50546;49.146;10.616;2022-10-16T04:54:27;6.53;;;3.45;;
64227;SDS011;50546;49.146;10.616;2022-10-16T04:56:52;11.18;;;3.67;;
64227;SDS011;50546;49.146;10.616;2022-10-16T04:59:18;6.50;;;3.50;;
64227;SDS011;50546;49.146;10.616;2022-10-16T05:01:44;8.50;;;3.53;;
64227;SDS011;50546;49.146;10.616;2022-10-16T05:04:09;6.63;;;3.17;;
64227;SDS011;50546;49.146;10.616;2022-10-16T05:06:35;6.70;;;3.17;;
64227;SDS011;50546;49.146;10.616;2022-10-16T05:09:01;7.82;;;3.47;;
64227;SDS011;50546;49.146;10.616;2022-10-16T05:11:27;6.22;;;3.30;;
64227;SDS011;50546;49.146;10.616;2022-10-16T05:13:52;6.65;;;3.45;;
64227;SDS011;50546;49.146;10.616;2022-10-16T05:16:18;6.60;;;3.28;;
64227;SDS011;50546;49.146;10.616;2022-10-16T05:18:43;7.72;;;3.45;;
64227;SDS011;50546;49.146;10.616;2022-10-16T05:21:08;8.23;;;3.65;;
64227;SDS011;50546;49.146;10.616;2022-10-16T05:23:34;7.25;;;3.22;;
64227;SDS011;50546;49.146;10.616;2022-10-16T05:25:59;6.63;;;3.80;;
64227;SDS011;50546;49.146;10.616;2022-10-16T05:28:25;6.30;;;3.47;;
64227;SDS011;50546;49.146;10.616;2022-10-16T05:30:52;8.10;;;3.55;;
64227;SDS011;50546;49.146;10.616;2022-10-16T05:33:21;7.18;;;3.47;;
64227;SDS011;50546;49.146;10.616;2022-10-16T05:35:48;7.15;;;3.60;;
64227;SDS011;50546;49.146;10.616;2022-10-16T05:38:14;6.15;;;3.15;;
64227;SDS011;50546;49.146;10.616;2022-10-16T05:40:40;6.30;;;3.22;;
64227;SDS011;50546;49.146;10.616;2022-10-16T05:43:05;6.35;;;3.28;;
64227;SDS011;50546;49.146;10.616;2022-10-16T05:45:31;10.15;;;3.15;;
64227;SDS011;50546;49.146;10.616;2022-10-16T05:47:56;8.93;;;3.97;;
64227;SDS011;50546;49.146;10.616;2022-10-16T05:50:21;8.20;;;3.30;;
64227;SDS011;50546;49.146;10.616;2022-10-16T05:52:46;6.53;;;3.33;;
64227;SDS011;50546;49.146;10.616;2022-10-16T05:55:12;6.90;;;3.60;;
64227;SDS011;50546;49.146;10.616;2022-10-16T05:57:37;7.22;;;3.45;;
64227;SDS011;50546;49.146;10.616;2022-10-16T06:00:03;7.80;;;3.38;;
64227;SDS011;50546;49.146;10.616;2022-10-16T06:02:29;10.13;;;3.10;;
64227;SDS011;50546;49.146;10.616;2022-10-16T06:04:55;8.43;;;4.00;;
64227;SDS011;50546;49.146;10.616;2022-10-16T06:07:20;7.90;;;4.05;;
64227;SDS011;50546;49.146;10.616;2022-10-16T06:09:49;6.85;;;3.33;;
64227;SDS011;50546;49.146;10.616;2022-10-16T06:12:15;8.15;;;3.63;;
64227;SDS011;50546;49.146;10.616;2022-10-16T06:14:41;8.13;;;3.72;;
64227;SDS011;50546;49.146;10.616;2022-10-16T06:17:06;10.68;;;3.65;;
64227;SDS011;50546;49.146;10.616;2022-10-16T06:19:32;6.93;;;3.50;;
64227;SDS011;50546;49.146;10.616;2022-10-16T06:21:57;7.15;;;3.33;;
64227;SDS011;50546;49.146;10.616;2022-10-16T06:24:23;6.72;;;3.40;;
64227;SDS011;50546;49.146;10.616;2022-10-16T06:26:49;10.32;;;4.30;;
64227;SDS011;50546;49.146;10.616;2022-10-16T06:29:14;7.95;;;3.92;;
64227;SDS011;50546;49.146;10.616;2022-10-16T06:31:39;8.20;;;4.07;;
64227;SDS011;50546;49.146;10.616;2022-10-16T06:34:05;12.98;;;6.05;;
64227;SDS011;50546;49.146;10.616;2022-10-16T06:36:34;10.25;;;5.03;;
64227;SDS011;50546;49.146;10.616;2022-10-16T06:38:59;7.95;;;3.90;;
64227;SDS011;50546;49.146;10.616;2022-10-16T06:41:25;8.75;;;3.33;;
64227;SDS011;50546;49.146;10.616;2022-10-16T06:43:50;8.15;;;3.50;;
64227;SDS011;50546;49.146;10.616;2022-10-16T06:46:18;6.85;;;3.50;;
64227;SDS011;50546;49.146;10.616;2022-10-16T06:48:45;6.43;;;2.97;;
64227;SDS011;50546;49.146;10.616;2022-10-16T06:51:12;6.40;;;3.17;;
64227;SDS011;50546;49.146;10.616;2022-10-16T06:53:40;7.57;;;3.72;;
64227;SDS011;50546;49.146;10.616;2022-10-16T06:56:17;7.75;;;3.60;;
64227;SDS011;50546;49.146;10.616;2022-10-16T06:58:44;5.75;;;2.88;;
64227;SDS011;50546;49.146;10.616;2022-10-16T07:01:11;6.38;;;2.92;;
64227;SDS011;50546;49.146;10.616;2022-10-16T07:03:38;5.93;;;2.92;;
64227;SDS011;50546;49.146;10.616;2022-10-16T07:06:08;8.60;;;3.08;;
64227;SDS011;50546;49.146;10.616;2022-10-16T07:08:35;8.32;;;4.40;;
64227;SDS011;50546;49.146;10.616;2022-10-16T07:11:02;6.60;;;3.55;;
64227;SDS011;50546;49.146;10.616;2022-10-16T07:13:29;7.75;;;3.63;;
64227;SDS011;50546;49.146;10.616;2022-10-16T07:15:55;7.53;;;3.55;;
64227;SDS011;50546;49.146;10.616;2022-10-16T07:18:20;7.18;;;3.33;;
64227;SDS011;50546;49.146;10.616;2022-10-16T07:20:46;7.40;;;3.78;;
64227;SDS011;50546;49.146;10.616;2022-10-16T07:23:12;8.65;;;3.70;;
64227;SDS011;50546;49.146;10.616;2022-10-16T07:25:37;7.47;;;3.10;;
64227;SDS011;50546;49.146;10.616;2022-10-16T07:28:02;8.05;;;2.95;;
64227;SDS011;50546;49.146;10.616;2022-10-16T07:30:28;7.40;;;3.40;;
64227;SDS011;50546;49.146;10.616;2022-10-16T07:32:53;8.23;;;3.25;;
64227;SDS011;50546;49.146;10.616;2022-10-16T07:35:18;6.55;;;3.00;;
64227;SDS011;50546;49.146;10.616;2022-10-16T07:37:44;7.65;;;3.40;;
64227;SDS011;50546;49.146;10.616;2022-10-16T07:40:11;9.70;;;3.58;;
64227;SDS011;50546;49.146;10.616;2022-10-16T07:42:36;6.75;;;3.08;;
64227;SDS011;50546;49.146;10.616;2022-10-16T07:45:03;7.38;;;2.92;;
64227;SDS011;50546;49.146;10.616;2022-10-16T07:47:28;6.60;;;2.47;;
64227;SDS011;50546;49.146;10.616;2022-10-16T07:49:54;6.50;;;2.70;;
64227;SDS011;50546;49.146;10.616;2022-10-16T07:52:19;6.90;;;2.72;;
64227;SDS011;50546;49.146;10.616;2022-10-16T07:54:44;8.60;;;2.50;;
64227;SDS011;50546;49.146;10.616;2022-10-16T07:57:10;10.25;;;2.60;;
64227;SDS011;50546;49.146;10.616;2022-10-16T07:59:35;7.53;;;3.10;;
64227;SDS011;50546;49.146;10.616;2022-10-16T08:02:00;7.40;;;2.60;;
64227;SDS011;50546;49.146;10.616;2022-10-16T08:04:26;7.05;;;2.80;;
64227;SDS011;50546;49.146;10.616;2022-10-16T08:06:51;7.88;;;3.03;;
64227;SDS011;50546;49.146;10.616;2022-10-16T08:09:16;7.25;;;3.17;;
64227;SDS011;50546;49.146;10.616;2022-10-16T08:11:42;7.88;;;2.70;;
64227;SDS011;50546;49.146;10.616;2022-10-16T08:14:07;8.27;;;2.90;;
64227;SDS011;50546;49.146;10.616;2022-10-16T08:16:33;6.43;;;3.03;;
64227;SDS011;50546;49.146;10.616;2022-10-16T08:18:58;7.72;;;2.78;;
64227;SDS011;50546;49.146;10.616;2022-10-16T08:21:23;7.28;;;2.80;;
64227;SDS011;50546;49.146;10.616;2022-10-16T08:23:49;7.25;;;2.53;;
64227;SDS011;50546;49.146;10.616;2022-10-16T08:26:15;7.35;;;2.60;;
64227;SDS011;50546;49.146;10.616;2022-10-16T08:28:40;5.82;;;2.70;;
64227;SDS011;50546;49.146;10.616;2022-10-16T08:31:07;5.57;;;2.38;;
64227;SDS011;50546;49.146;10.616;2022-10-16T08:33:33;5.25;;;2.38;;
64227;SDS011;50546;49.146;10.616;2022-10-16T08:36:00;7.55;;;2.88;;
64227;SDS011;50546;49.146;10.616;2022-10-16T08:38:26;6.50;;;2.65;;
64227;SDS011;50546;49.146;10.616;2022-10-16T08:40:51;6.45;;;2.67;;
64227;SDS011;50546;49.146;10.616;2022-10-16T08:49:11;6.00;;;2.40;;
64227;SDS011;50546;49.146;10.616;2022-10-16T08:51:40;9.68;;;2.60;;
64227;SDS011;50546;49.146;10.616;2022-10-16T08:56:55;7.32;;;2.88;;
64227;SDS011;50546;49.146;10.616;2022-10-16T08:59:21;7.53;;;2.80;;
64227;SDS011;50546;49.146;10.616;2022-10-16T09:01:47;7.35;;;2.80;;
64227;SDS011;50546;49.146;10.616;2022-10-16T09:04:24;10.00;;;2.67;;
64227;SDS011;50546;49.146;10.616;2022-10-16T09:07:04;7.75;;;3.10;;
64227;SDS011;50546;49.146;10.616;2022-10-16T09:09:54;6.28;;;2.78;;
64227;SDS011;50546;49.146;10.616;2022-10-16T09:12:36;7.53;;;2.63;;
64227;SDS011;50546;49.146;10.616;2022-10-16T09:17:39;7.95;;;3.15;;
64227;SDS011;50546;49.146;10.616;2022-10-16T09:20:23;7.15;;;3.35;;
64227;SDS011;50546;49.146;10.616;2022-10-16T09:25:29;7.15;;;2.80;;
64227;SDS011;50546;49.146;10.616;2022-10-16T09:27:56;8.30;;;2.65;;
64227;SDS011;50546;49.146;10.616;2022-10-16T09:30:21;8.25;;;3.33;;
64227;SDS011;50546;49.146;10.616;2022-10-16T09:32:51;7.40;;;2.70;;
64227;SDS011;50546;49.146;10.616;2022-10-16T09:35:51;5.93;;;2.70;;
64227;SDS011;50546;49.146;10.616;2022-10-16T09:41:16;6.45;;;2.65;;
64227;SDS011;50546;49.146;10.616;2022-10-16T09:46:26;10.27;;;4.60;;
64227;SDS011;50546;49.146;10.616;2022-10-16T09:48:53;6.28;;;3.00;;
64227;SDS011;50546;49.146;10.616;2022-10-16T09:53:55;8.07;;;3.45;;
64227;SDS011;50546;49.146;10.616;2022-10-16T09:56:37;7.30;;;2.70;;
64227;SDS011;50546;49.146;10.616;2022-10-16T09:59:11;6.00;;;2.90;;
64227;SDS011;50546;49.146;10.616;2022-10-16T10:04:04;5.75;;;2.60;;
64227;SDS011;50546;49.146;10.616;2022-10-16T10:06:40;6.28;;;2.63;;
64227;SDS011;50546;49.146;10.616;2022-10-16T10:09:27;9.35;;;2.50;;
64227;SDS011;50546;49.146;10.616;2022-10-16T10:11:58;5.97;;;2.53;;
64227;SDS011;50546;49.146;10.616;2022-10-16T10:19:29;6.35;;;2.40;;
64227;SDS011;50546;49.146;10.616;2022-10-16T10:21:55;8.13;;;2.75;;
64227;SDS011;50546;49.146;10.616;2022-10-16T10:24:20;6.68;;;2.42;;
64227;SDS011;50546;49.146;10.616;2022-10-16T10:26:48;8.25;;;2.95;;
64227;SDS011;50546;49.146;10.616;2022-10-16T10:34:57;7.75;;;2.90;;
64227;SDS011;50546;49.146;10.616;2022-10-16T10:43:30;6.72;;;2.60;;
64227;SDS011;50546;49.146;10.616;2022-10-16T10:46:01;6.65;;;2.55;;
64227;SDS011;50546;49.146;10.616;2022-10-16T10:54:10;7.38;;;2.25;;
64227;SDS011;50546;49.146;10.616;2022-10-16T10:56:43;5.10;;;2.08;;
64227;SDS011;50546;49.146;10.616;2022-10-16T11:02:18;5.55;;;2.20;;
64227;SDS011;50546;49.146;10.616;2022-10-16T11:04:58;7.18;;;2.10;;
64227;SDS011;50546;49.146;10.616;2022-10-16T11:08:03;5.18;;;1.90;;
64227;SDS011;50546;49.146;10.616;2022-10-16T11:10:40;6.32;;;2.03;;
64227;SDS011;50546;49.146;10.616;2022-10-16T11:13:15;5.93;;;2.20;;
64227;SDS011;50546;49.146;10.616;2022-10-16T11:16:17;5.65;;;2.05;;
64227;SDS011;50546;49.146;10.616;2022-10-16T11:22:10;6.10;;;2.20;;
64227;SDS011;50546;49.146;10.616;2022-10-16T11:24:44;7.68;;;1.95;;
64227;SDS011;50546;49.146;10.616;2022-10-16T11:27:16;7.88;;;2.30;;
64227;SDS011;50546;49.146;10.616;2022-10-16T11:29:58;5.60;;;2.40;;
64227;SDS011;50546;49.146;10.616;2022-10-16T11:32:34;7.50;;;2.35;;
64227;SDS011;50546;49.146;10.616;2022-10-16T11:35:19;6.28;;;2.20;;
64227;SDS011;50546;49.146;10.616;2022-10-16T11:37:49;8.43;;;2.30;;
64227;SDS011;50546;49.146;10.616;2022-10-16T11:40:30;5.25;;;2.20;;
64227;SDS011;50546;49.146;10.616;2022-10-16T11:43:10;5.57;;;2.30;;
64227;SDS011;50546;49.146;10.616;2022-10-16T11:50:48;9.15;;;2.30;;
64227;SDS011;50546;49.146;10.616;2022-10-16T11:56:03;8.88;;;2.28;;
64227;SDS011;50546;49.146;10.616;2022-10-16T12:06:20;7.15;;;2.38;;
64227;SDS011;50546;49.146;10.616;2022-10-16T12:08:48;6.93;;;2.30;;
64227;SDS011;50546;49.146;10.616;2022-10-16T12:11:22;6.40;;;2.03;;
64227;SDS011;50546;49.146;10.616;2022-10-16T12:13:48;5.55;;;2.40;;
64227;SDS011;50546;49.146;10.616;2022-10-16T12:18:45;6.30;;;2.00;;
64227;SDS011;50546;49.146;10.616;2022-10-16T12:21:15;6.93;;;1.98;;
64227;SDS011;50546;49.146;10.616;2022-10-16T12:23:53;6.13;;;1.83;;
64227;SDS011;50546;49.146;10.616;2022-10-16T12:26:24;8.23;;;1.70;;
64227;SDS011;50546;49.146;10.616;2022-10-16T12:28:51;5.95;;;2.00;;
64227;SDS011;50546;49.146;10.616;2022-10-16T12:31:17;4.80;;;1.50;;
64227;SDS011;50546;49.146;10.616;2022-10-16T12:33:53;5.05;;;1.80;;
64227;SDS011;50546;49.146;10.616;2022-10-16T12:36:29;7.38;;;1.95;;
64227;SDS011;50546;49.146;10.616;2022-10-16T12:38:57;5.22;;;1.60;;
64227;SDS011;50546;49.146;10.616;2022-10-16T12:41:32;4.70;;;1.58;;
64227;SDS011;50546;49.146;10.616;2022-10-16T12:44:04;8.50;;;1.98;;
64227;SDS011;50546;49.146;10.616;2022-10-16T12:49:56;5.90;;;1.53;;
64227;SDS011;50546;49.146;10.616;2022-10-16T12:51:52;8.45;;;2.20;;
64227;SDS011;50546;49.146;10.616;2022-10-16T12:54:19;6.57;;;2.10;;
64227;SDS011;50546;49.146;10.616;2022-10-16T13:11:01;5.40;;;1.40;;
64227;SDS011;50546;49.146;10.616;2022-10-16T13:16:22;4.60;;;1.42;;
64227;SDS011;50546;49.146;10.616;2022-10-16T13:22:08;5.63;;;1.70;;
64227;SDS011;50546;49.146;10.616;2022-10-16T13:24:54;5.78;;;1.30;;
64227;SDS011;50546;49.146;10.616;2022-10-16T13:27:52;5.43;;;1.42;;
64227;SDS011;50546;49.146;10.616;2022-10-16T13:30:40;5.68;;;1.60;;
64227;SDS011;50546;49.146;10.616;2022-10-16T13:36:17;4.55;;;1.70;;
64227;SDS011;50546;49.146;10.616;2022-10-16T13:38:45;6.78;;;1.55;;
64227;SDS011;50546;49.146;10.616;2022-10-16T13:41:14;5.68;;;1.33;;
64227;SDS011;50546;49.146;10.616;2022-10-16T13:43:45;4.50;;;1.50;;
64227;SDS011;50546;49.146;10.616;2022-10-16T13:46:15;6.28;;;1.63;;
64227;SDS011;50546;49.146;10.616;2022-10-16T13:48:43;5.40;;;1.50;;
64227;SDS011;50546;49.146;10.616;2022-10-16T13:51:20;4.82;;;1.67;;
64227;SDS011;50546;49.146;10.616;2022-10-16T13:53:46;4.78;;;1.17;;
64227;SDS011;50546;49.146;10.616;2022-10-16T13:56:13;4.28;;;1.40;;
64227;SDS011;50546;49.146;10.616;2022-10-16T13:58:40;6.53;;;2.00;;
64227;SDS011;50546;49.146;10.616;2022-10-16T14:01:15;4.80;;;1.40;;
64227;SDS011;50546;49.146;10.616;2022-10-16T14:03:46;5.97;;;1.85;;
64227;SDS011;50546;49.146;10.616;2022-10-16T14:06:13;5.13;;;1.40;;
64227;SDS011;50546;49.146;10.616;2022-10-16T14:08:58;6.22;;;1.70;;
64227;SDS011;50546;49.146;10.616;2022-10-16T14:11:27;5.97;;;2.00;;
64227;SDS011;50546;49.146;10.616;2022-10-16T14:13:53;4.65;;;1.80;;
64227;SDS011;50546;49.146;10.616;2022-10-16T14:16:23;5.57;;;1.98;;
64227;SDS011;50546;49.146;10.616;2022-10-16T14:19:03;6.70;;;1.77;;
64227;SDS011;50546;49.146;10.616;2022-10-16T14:21:31;5.38;;;1.80;;
64227;SDS011;50546;49.146;10.616;2022-10-16T14:23:58;6.45;;;1.80;;
64227;SDS011;50546;49.146;10.616;2022-10-16T14:26:25;6.97;;;1.90;;
64227;SDS011;50546;49.146;10.616;2022-10-16T14:31:57;6.07;;;1.83;;
64227;SDS011;50546;49.146;10.616;2022-10-16T14:34:36;6.55;;;2.10;;
64227;SDS011;50546;49.146;10.616;2022-10-16T14:39:53;7.30;;;2.15;;
64227;SDS011;50546;49.146;10.616;2022-10-16T14:42:20;11.57;;;2.83;;
64227;SDS011;50546;49.146;10.616;2022-10-16T14:44:49;7.22;;;2.50;;
64227;SDS011;50546;49.146;10.616;2022-10-16T14:47:18;5.82;;;2.67;;
64227;SDS011;50546;49.146;10.616;2022-10-16T14:49:50;8.75;;;2.25;;
64227;SDS011;50546;49.146;10.616;2022-10-16T14:52:16;8.32;;;3.17;;
64227;SDS011;50546;49.146;10.616;2022-10-16T14:54:41;7.47;;;2.65;;
64227;SDS011;50546;49.146;10.616;2022-10-16T14:57:20;5.55;;;2.25;;
64227;SDS011;50546;49.146;10.616;2022-10-16T14:59:48;7.13;;;2.50;;
64227;SDS011;50546;49.146;10.616;2022-10-16T15:02:32;10.65;;;2.78;;
64227;SDS011;50546;49.146;10.616;2022-10-16T15:05:02;8.57;;;2.63;;
64227;SDS011;50546;49.146;10.616;2022-10-16T15:07:36;7.05;;;2.28;;
64227;SDS011;50546;49.146;10.616;2022-10-16T15:10:02;5.75;;;2.10;;
64227;SDS011;50546;49.146;10.616;2022-10-16T15:12:28;7.53;;;1.98;;
64227;SDS011;50546;49.146;10.616;2022-10-16T15:14:53;6.40;;;1.95;;
64227;SDS011;50546;49.146;10.616;2022-10-16T15:17:18;5.63;;;2.00;;
64227;SDS011;50546;49.146;10.616;2022-10-16T15:19:44;7.78;;;2.30;;
64227;SDS011;50546;49.146;10.616;2022-10-16T15:22:10;5.40;;;2.47;;
64227;SDS011;50546;49.146;10.616;2022-10-16T15:24:36;7.03;;;2.30;;
64227;SDS011;50546;49.146;10.616;2022-10-16T15:27:02;9.40;;;3.10;;
64227;SDS011;50546;49.146;10.616;2022-10-16T15:29:27;8.43;;;4.15;;
64227;SDS011;50546;49.146;10.616;2022-10-16T15:31:52;9.45;;;4.43;;
64227;SDS011;50546;49.146;10.616;2022-10-16T15:34:18;9.35;;;3.85;;
64227;SDS011;50546;49.146;10.616;2022-10-16T15:36:44;6.38;;;2.72;;
64227;SDS011;50546;49.146;10.616;2022-10-16T15:39:12;5.32;;;2.28;;
64227;SDS011;50546;49.146;10.616;2022-10-16T15:41:39;6.85;;;2.95;;
64227;SDS011;50546;49.146;10.616;2022-10-16T15:44:04;9.60;;;3.72;;
64227;SDS011;50546;49.146;10.616;2022-10-16T15:46:30;7.20;;;2.40;;
64227;SDS011;50546;49.146;10.616;2022-10-16T15:48:56;5.47;;;2.50;;
64227;SDS011;50546;49.146;10.616;2022-10-16T15:51:23;6.72;;;2.47;;
64227;SDS011;50546;49.146;10.616;2022-10-16T15:53:49;8.05;;;2.58;;
64227;SDS011;50546;49.146;10.616;2022-10-16T15:56:16;7.00;;;3.03;;
64227;SDS011;50546;49.146;10.616;2022-10-16T15:58:42;7.93;;;3.10;;
64227;SDS011;50546;49.146;10.616;2022-10-16T16:01:08;6.72;;;3.33;;
64227;SDS011;50546;49.146;10.616;2022-10-16T16:03:35;9.50;;;3.80;;
64227;SDS011;50546;49.146;10.616;2022-10-16T16:06:05;8.25;;;3.10;;
64227;SDS011;50546;49.146;10.616;2022-10-16T16:08:32;10.85;;;3.67;;
64227;SDS011;50546;49.146;10.616;2022-10-16T16:11:01;10.98;;;5.07;;
64227;SDS011;50546;49.146;10.616;2022-10-16T16:13:29;14.60;;;6.13;;
64227;SDS011;50546;49.146;10.616;2022-10-16T16:15:55;11.85;;;5.53;;
64227;SDS011;50546;49.146;10.616;2022-10-16T16:18:20;12.27;;;5.55;;
64227;SDS011;50546;49.146;10.616;2022-10-16T16:20:46;8.25;;;4.13;;
64227;SDS011;50546;49.146;10.616;2022-10-16T16:23:11;12.23;;;5.97;;
64227;SDS011;50546;49.146;10.616;2022-10-16T16:25:36;16.75;;;7.43;;
64227;SDS011;50546;49.146;10.616;2022-10-16T16:28:02;22.05;;;8.88;;
64227;SDS011;50546;49.146;10.616;2022-10-16T16:30:27;18.33;;;7.57;;
64227;SDS011;50546;49.146;10.616;2022-10-16T16:32:52;17.42;;;7.65;;
64227;SDS011;50546;49.146;10.616;2022-10-16T16:35:18;17.63;;;8.98;;
64227;SDS011;50546;49.146;10.616;2022-10-16T16:37:43;14.32;;;6.70;;
64227;SDS011;50546;49.146;10.616;2022-10-16T16:40:08;11.13;;;4.90;;